sensor_id;sensor_type;location;lat;lon;timestamp;P1;durP1;ratioP1;P2;durP2;ratioP2
26718;SDS011;14326;50.794;6.060;2024-02-26T00:01:36;8.50;;;2.47;;
26718;SDS011;14326;50.794;6.060;2024-02-26T00:04:03;7.45;;;2.67;;
26718;SDS011;14326;50.794;6.060;2024-02-26T00:06:30;7.60;;;2.67;;
26718;SDS011;14326;50.794;6.060;2024-02-26T00:08:58;10.20;;;2.75;;
26718;SDS011;14326;50.794;6.060;2024-02-26T00:11:26;8.20;;;2.60;;
26718;SDS011;14326;50.794;6.060;2024-02-26T00:13:53;9.68;;;2.63;;
26718;SDS011;14326;50.794;6.060;2024-02-26T00:16:19;7.88;;;2.45;;
26718;SDS011;14326;50.794;6.060;2024-02-26T00:18:46;6.15;;;2.38;;
26718;SDS011;14326;50.794;6.060;2024-02-26T00:21:13;5.25;;;2.25;;
26718;SDS011;14326;50.794;6.060;2024-02-26T00:23:40;6.65;;;2.50;;
26718;SDS011;14326;50.794;6.060;2024-02-26T00:26:08;5.60;;;2.30;;
26718;SDS011;14326;50.794;6.060;2024-02-26T00:28:36;5.22;;;2.10;;
26718;SDS011;14326;50.794;6.060;2024-02-26T00:31:04;7.78;;;2.50;;
26718;SDS011;14326;50.794;6.060;2024-02-26T00:33:31;6.53;;;2.25;;
26718;SDS011;14326;50.794;6.060;2024-02-26T00:35:58;6.72;;;2.50;;
26718;SDS011;14326;50.794;6.060;2024-02-26T00:38:24;7.15;;;2.30;;
26718;SDS011;14326;50.794;6.060;2024-02-26T00:40:51;7.97;;;2.65;;
26718;SDS011;14326;50.794;6.060;2024-02-26T00:43:19;8.07;;;2.42;;
26718;SDS011;14326;50.794;6.060;2024-02-26T00:49:06;11.23;;;3.00;;
26718;SDS011;14326;50.794;6.060;2024-02-26T00:51:33;10.20;;;3.08;;
26718;SDS011;14326;50.794;6.060;2024-02-26T00:53:59;6.15;;;2.50;;
26718;SDS011;14326;50.794;6.060;2024-02-26T00:56:26;8.40;;;2.50;;
26718;SDS011;14326;50.794;6.060;2024-02-26T00:58:53;4.35;;;2.05;;
26718;SDS011;14326;50.794;6.060;2024-02-26T01:01:19;9.23;;;2.63;;
26718;SDS011;14326;50.794;6.060;2024-02-26T01:04:04;7.43;;;2.72;;
26718;SDS011;14326;50.794;6.060;2024-02-26T01:06:31;9.95;;;2.80;;
26718;SDS011;14326;50.794;6.060;2024-02-26T01:08:58;5.80;;;2.08;;
26718;SDS011;14326;50.794;6.060;2024-02-26T01:11:24;7.50;;;1.92;;
26718;SDS011;14326;50.794;6.060;2024-02-26T01:13:51;5.78;;;2.10;;
26718;SDS011;14326;50.794;6.060;2024-02-26T01:16:21;4.93;;;2.28;;
26718;SDS011;14326;50.794;6.060;2024-02-26T01:18:48;11.52;;;2.63;;
26718;SDS011;14326;50.794;6.060;2024-02-26T01:21:19;7.57;;;2.25;;
26718;SDS011;14326;50.794;6.060;2024-02-26T01:23:46;6.65;;;2.33;;
26718;SDS011;14326;50.794;6.060;2024-02-26T01:26:13;8.85;;;2.42;;
26718;SDS011;14326;50.794;6.060;2024-02-26T01:28:39;6.50;;;2.22;;
26718;SDS011;14326;50.794;6.060;2024-02-26T01:31:06;5.28;;;2.20;;
26718;SDS011;14326;50.794;6.060;2024-02-26T01:33:33;6.57;;;2.38;;
26718;SDS011;14326;50.794;6.060;2024-02-26T01:36:03;8.15;;;2.30;;
26718;SDS011;14326;50.794;6.060;2024-02-26T01:38:31;6.28;;;2.25;;
26718;SDS011;14326;50.794;6.060;2024-02-26T01:40:58;7.30;;;2.15;;
26718;SDS011;14326;50.794;6.060;2024-02-26T01:43:25;6.85;;;2.60;;
26718;SDS011;14326;50.794;6.060;2024-02-26T01:45:52;5.60;;;2.28;;
26718;SDS011;14326;50.794;6.060;2024-02-26T01:48:18;8.85;;;2.58;;
26718;SDS011;14326;50.794;6.060;2024-02-26T01:50:47;8.10;;;2.30;;
26718;SDS011;14326;50.794;6.060;2024-02-26T01:53:14;6.20;;;2.30;;
26718;SDS011;14326;50.794;6.060;2024-02-26T01:55:44;6.10;;;2.20;;
26718;SDS011;14326;50.794;6.060;2024-02-26T01:58:10;5.95;;;2.20;;
26718;SDS011;14326;50.794;6.060;2024-02-26T02:00:43;4.90;;;2.08;;
26718;SDS011;14326;50.794;6.060;2024-02-26T02:03:10;7.85;;;2.40;;
26718;SDS011;14326;50.794;6.060;2024-02-26T02:05:37;4.90;;;2.00;;
26718;SDS011;14326;50.794;6.060;2024-02-26T02:08:07;12.80;;;2.47;;
26718;SDS011;14326;50.794;6.060;2024-02-26T02:10:36;7.05;;;2.50;;
26718;SDS011;14326;50.794;6.060;2024-02-26T02:13:06;5.20;;;2.17;;
26718;SDS011;14326;50.794;6.060;2024-02-26T02:15:32;10.15;;;2.60;;
26718;SDS011;14326;50.794;6.060;2024-02-26T02:17:59;6.40;;;2.33;;
26718;SDS011;14326;50.794;6.060;2024-02-26T02:20:31;5.68;;;2.10;;
26718;SDS011;14326;50.794;6.060;2024-02-26T02:22:59;8.13;;;2.20;;
26718;SDS011;14326;50.794;6.060;2024-02-26T02:25:25;6.65;;;2.42;;
26718;SDS011;14326;50.794;6.060;2024-02-26T02:27:52;5.60;;;2.10;;
26718;SDS011;14326;50.794;6.060;2024-02-26T02:30:20;6.38;;;2.45;;
26718;SDS011;14326;50.794;6.060;2024-02-26T02:32:47;6.15;;;2.42;;
26718;SDS011;14326;50.794;6.060;2024-02-26T02:35:14;5.68;;;2.28;;
26718;SDS011;14326;50.794;6.060;2024-02-26T02:37:42;7.80;;;2.47;;
26718;SDS011;14326;50.794;6.060;2024-02-26T02:40:09;8.52;;;2.50;;
26718;SDS011;14326;50.794;6.060;2024-02-26T02:42:35;6.57;;;2.35;;
26718;SDS011;14326;50.794;6.060;2024-02-26T02:45:02;7.50;;;2.53;;
26718;SDS011;14326;50.794;6.060;2024-02-26T02:47:29;7.40;;;2.50;;
26718;SDS011;14326;50.794;6.060;2024-02-26T02:49:55;8.88;;;2.70;;
26718;SDS011;14326;50.794;6.060;2024-02-26T02:52:22;6.05;;;2.30;;
26718;SDS011;14326;50.794;6.060;2024-02-26T02:54:50;5.97;;;2.70;;
26718;SDS011;14326;50.794;6.060;2024-02-26T02:57:17;9.82;;;2.70;;
26718;SDS011;14326;50.794;6.060;2024-02-26T02:59:43;9.07;;;2.60;;
26718;SDS011;14326;50.794;6.060;2024-02-26T03:02:10;6.70;;;2.55;;
26718;SDS011;14326;50.794;6.060;2024-02-26T03:04:37;5.85;;;2.53;;
26718;SDS011;14326;50.794;6.060;2024-02-26T03:07:03;6.72;;;2.38;;
26718;SDS011;14326;50.794;6.060;2024-02-26T03:09:30;6.78;;;2.70;;
26718;SDS011;14326;50.794;6.060;2024-02-26T03:11:58;7.70;;;2.95;;
26718;SDS011;14326;50.794;6.060;2024-02-26T03:14:25;8.75;;;2.28;;
26718;SDS011;14326;50.794;6.060;2024-02-26T03:16:53;7.10;;;2.50;;
26718;SDS011;14326;50.794;6.060;2024-02-26T03:19:20;7.03;;;2.72;;
26718;SDS011;14326;50.794;6.060;2024-02-26T03:21:46;5.78;;;2.30;;
26718;SDS011;14326;50.794;6.060;2024-02-26T03:24:13;7.60;;;2.80;;
26718;SDS011;14326;50.794;6.060;2024-02-26T03:26:40;5.00;;;2.40;;
26718;SDS011;14326;50.794;6.060;2024-02-26T03:29:08;8.43;;;2.50;;
26718;SDS011;14326;50.794;6.060;2024-02-26T03:31:35;8.52;;;2.50;;
26718;SDS011;14326;50.794;6.060;2024-02-26T03:34:02;9.95;;;3.10;;
26718;SDS011;14326;50.794;6.060;2024-02-26T03:36:28;8.05;;;2.63;;
26718;SDS011;14326;50.794;6.060;2024-02-26T03:38:55;5.57;;;2.55;;
26718;SDS011;14326;50.794;6.060;2024-02-26T03:41:21;9.57;;;2.95;;
26718;SDS011;14326;50.794;6.060;2024-02-26T03:43:48;9.85;;;2.80;;
26718;SDS011;14326;50.794;6.060;2024-02-26T03:46:16;6.57;;;2.70;;
26718;SDS011;14326;50.794;6.060;2024-02-26T03:49:04;8.20;;;2.80;;
26718;SDS011;14326;50.794;6.060;2024-02-26T03:51:31;10.05;;;2.80;;
26718;SDS011;14326;50.794;6.060;2024-02-26T03:53:58;7.18;;;2.90;;
26718;SDS011;14326;50.794;6.060;2024-02-26T03:56:25;6.72;;;2.75;;
26718;SDS011;14326;50.794;6.060;2024-02-26T03:58:52;11.13;;;3.22;;
26718;SDS011;14326;50.794;6.060;2024-02-26T04:01:19;7.80;;;2.75;;
26718;SDS011;14326;50.794;6.060;2024-02-26T04:03:46;8.13;;;2.70;;
26718;SDS011;14326;50.794;6.060;2024-02-26T04:06:13;7.80;;;2.75;;
26718;SDS011;14326;50.794;6.060;2024-02-26T04:08:40;11.63;;;3.42;;
26718;SDS011;14326;50.794;6.060;2024-02-26T04:11:07;8.05;;;2.83;;
26718;SDS011;14326;50.794;6.060;2024-02-26T04:13:34;8.88;;;3.35;;
26718;SDS011;14326;50.794;6.060;2024-02-26T04:16:03;8.98;;;3.00;;
26718;SDS011;14326;50.794;6.060;2024-02-26T04:18:30;7.07;;;2.88;;
26718;SDS011;14326;50.794;6.060;2024-02-26T04:20:57;11.55;;;3.20;;
26718;SDS011;14326;50.794;6.060;2024-02-26T04:23:25;8.75;;;3.30;;
26718;SDS011;14326;50.794;6.060;2024-02-26T04:25:52;6.68;;;2.90;;
26718;SDS011;14326;50.794;6.060;2024-02-26T04:28:19;5.65;;;2.78;;
26718;SDS011;14326;50.794;6.060;2024-02-26T04:30:46;9.23;;;3.15;;
26718;SDS011;14326;50.794;6.060;2024-02-26T04:33:13;9.68;;;3.13;;
26718;SDS011;14326;50.794;6.060;2024-02-26T04:35:39;7.32;;;3.00;;
26718;SDS011;14326;50.794;6.060;2024-02-26T04:38:06;9.13;;;3.20;;
26718;SDS011;14326;50.794;6.060;2024-02-26T04:40:34;7.18;;;2.80;;
26718;SDS011;14326;50.794;6.060;2024-02-26T04:43:01;8.85;;;3.03;;
26718;SDS011;14326;50.794;6.060;2024-02-26T04:45:27;10.85;;;3.22;;
26718;SDS011;14326;50.794;6.060;2024-02-26T04:47:54;9.80;;;3.20;;
26718;SDS011;14326;50.794;6.060;2024-02-26T04:50:21;7.60;;;2.80;;
26718;SDS011;14326;50.794;6.060;2024-02-26T04:52:47;8.48;;;2.80;;
26718;SDS011;14326;50.794;6.060;2024-02-26T04:55:14;8.93;;;3.13;;
26718;SDS011;14326;50.794;6.060;2024-02-26T04:57:42;10.73;;;3.65;;
26718;SDS011;14326;50.794;6.060;2024-02-26T05:00:09;9.82;;;3.33;;
26718;SDS011;14326;50.794;6.060;2024-02-26T05:02:36;11.00;;;3.03;;
26718;SDS011;14326;50.794;6.060;2024-02-26T05:05:04;7.78;;;3.00;;
26718;SDS011;14326;50.794;6.060;2024-02-26T05:07:30;11.40;;;3.00;;
26718;SDS011;14326;50.794;6.060;2024-02-26T05:09:57;9.00;;;3.20;;
26718;SDS011;14326;50.794;6.060;2024-02-26T05:12:24;9.52;;;3.13;;
26718;SDS011;14326;50.794;6.060;2024-02-26T05:14:52;9.02;;;3.33;;
26718;SDS011;14326;50.794;6.060;2024-02-26T05:17:18;6.18;;;2.70;;
26718;SDS011;14326;50.794;6.060;2024-02-26T05:19:45;9.45;;;2.95;;
26718;SDS011;14326;50.794;6.060;2024-02-26T05:22:12;10.85;;;3.30;;
26718;SDS011;14326;50.794;6.060;2024-02-26T05:24:38;10.77;;;3.20;;
26718;SDS011;14326;50.794;6.060;2024-02-26T05:27:05;17.45;;;4.30;;
26718;SDS011;14326;50.794;6.060;2024-02-26T05:29:32;10.32;;;3.90;;
26718;SDS011;14326;50.794;6.060;2024-02-26T05:32:00;12.40;;;4.20;;
26718;SDS011;14326;50.794;6.060;2024-02-26T05:34:26;15.70;;;4.35;;
26718;SDS011;14326;50.794;6.060;2024-02-26T05:36:55;12.75;;;4.38;;
26718;SDS011;14326;50.794;6.060;2024-02-26T05:39:22;11.13;;;4.00;;
26718;SDS011;14326;50.794;6.060;2024-02-26T05:41:48;13.45;;;4.25;;
26718;SDS011;14326;50.794;6.060;2024-02-26T05:44:15;10.98;;;4.13;;
26718;SDS011;14326;50.794;6.060;2024-02-26T05:46:42;12.20;;;4.13;;
26718;SDS011;14326;50.794;6.060;2024-02-26T05:49:09;11.15;;;4.00;;
26718;SDS011;14326;50.794;6.060;2024-02-26T05:51:36;12.35;;;4.10;;
26718;SDS011;14326;50.794;6.060;2024-02-26T05:54:03;12.65;;;3.90;;
26718;SDS011;14326;50.794;6.060;2024-02-26T05:56:29;10.13;;;3.85;;
26718;SDS011;14326;50.794;6.060;2024-02-26T05:58:56;12.82;;;4.40;;
26718;SDS011;14326;50.794;6.060;2024-02-26T06:01:22;14.27;;;4.57;;
26718;SDS011;14326;50.794;6.060;2024-02-26T06:03:49;14.25;;;4.40;;
26718;SDS011;14326;50.794;6.060;2024-02-26T06:06:17;13.43;;;4.35;;
26718;SDS011;14326;50.794;6.060;2024-02-26T06:08:44;15.65;;;4.90;;
26718;SDS011;14326;50.794;6.060;2024-02-26T06:11:10;13.95;;;5.03;;
26718;SDS011;14326;50.794;6.060;2024-02-26T06:13:37;11.60;;;4.22;;
26718;SDS011;14326;50.794;6.060;2024-02-26T06:16:04;15.70;;;4.55;;
26718;SDS011;14326;50.794;6.060;2024-02-26T06:18:30;12.68;;;4.40;;
26718;SDS011;14326;50.794;6.060;2024-02-26T06:20:57;16.63;;;5.63;;
26718;SDS011;14326;50.794;6.060;2024-02-26T06:23:25;13.50;;;5.07;;
26718;SDS011;14326;50.794;6.060;2024-02-26T06:25:52;16.45;;;5.57;;
26718;SDS011;14326;50.794;6.060;2024-02-26T06:28:19;15.73;;;5.55;;
26718;SDS011;14326;50.794;6.060;2024-02-26T06:30:45;12.13;;;4.90;;
26718;SDS011;14326;50.794;6.060;2024-02-26T06:33:12;16.85;;;5.80;;
26718;SDS011;14326;50.794;6.060;2024-02-26T06:35:39;15.27;;;5.93;;
26718;SDS011;14326;50.794;6.060;2024-02-26T06:38:05;15.82;;;5.72;;
26718;SDS011;14326;50.794;6.060;2024-02-26T06:40:34;20.80;;;5.82;;
26718;SDS011;14326;50.794;6.060;2024-02-26T06:43:01;15.40;;;5.50;;
26718;SDS011;14326;50.794;6.060;2024-02-26T06:45:27;15.98;;;5.60;;
26718;SDS011;14326;50.794;6.060;2024-02-26T06:47:54;16.13;;;5.82;;
26718;SDS011;14326;50.794;6.060;2024-02-26T06:50:21;16.80;;;5.70;;
26718;SDS011;14326;50.794;6.060;2024-02-26T06:52:48;15.07;;;5.93;;
26718;SDS011;14326;50.794;6.060;2024-02-26T06:55:15;18.90;;;6.95;;
26718;SDS011;14326;50.794;6.060;2024-02-26T06:57:43;18.30;;;7.40;;
26718;SDS011;14326;50.794;6.060;2024-02-26T07:00:10;18.35;;;7.28;;
26718;SDS011;14326;50.794;6.060;2024-02-26T07:02:40;17.23;;;7.25;;
26718;SDS011;14326;50.794;6.060;2024-02-26T07:05:07;16.90;;;6.90;;
26718;SDS011;14326;50.794;6.060;2024-02-26T07:07:34;17.63;;;7.00;;
26718;SDS011;14326;50.794;6.060;2024-02-26T07:10:01;21.98;;;7.97;;
26718;SDS011;14326;50.794;6.060;2024-02-26T07:12:28;18.10;;;7.45;;
26718;SDS011;14326;50.794;6.060;2024-02-26T07:14:56;18.30;;;7.10;;
26718;SDS011;14326;50.794;6.060;2024-02-26T07:17:23;19.35;;;7.10;;
26718;SDS011;14326;50.794;6.060;2024-02-26T07:19:50;18.52;;;7.72;;
26718;SDS011;14326;50.794;6.060;2024-02-26T07:22:16;18.50;;;7.53;;
26718;SDS011;14326;50.794;6.060;2024-02-26T07:24:43;17.40;;;7.45;;
26718;SDS011;14326;50.794;6.060;2024-02-26T07:27:10;19.38;;;8.73;;
26718;SDS011;14326;50.794;6.060;2024-02-26T07:29:36;19.60;;;8.05;;
26718;SDS011;14326;50.794;6.060;2024-02-26T07:32:05;20.58;;;8.40;;
26718;SDS011;14326;50.794;6.060;2024-02-26T07:34:32;18.02;;;8.63;;
26718;SDS011;14326;50.794;6.060;2024-02-26T07:36:59;20.52;;;8.73;;
26718;SDS011;14326;50.794;6.060;2024-02-26T07:39:25;21.80;;;9.02;;
26718;SDS011;14326;50.794;6.060;2024-02-26T07:41:52;20.33;;;8.75;;
26718;SDS011;14326;50.794;6.060;2024-02-26T07:44:18;23.25;;;9.13;;
26718;SDS011;14326;50.794;6.060;2024-02-26T07:46:45;20.52;;;9.20;;
26718;SDS011;14326;50.794;6.060;2024-02-26T07:49:13;21.83;;;8.68;;
26718;SDS011;14326;50.794;6.060;2024-02-26T07:51:40;20.35;;;8.35;;
26718;SDS011;14326;50.794;6.060;2024-02-26T07:54:07;18.67;;;8.57;;
26718;SDS011;14326;50.794;6.060;2024-02-26T07:56:33;19.65;;;8.93;;
26718;SDS011;14326;50.794;6.060;2024-02-26T07:59:00;19.33;;;8.10;;
26718;SDS011;14326;50.794;6.060;2024-02-26T08:01:26;18.90;;;7.55;;
26718;SDS011;14326;50.794;6.060;2024-02-26T08:03:53;20.92;;;8.25;;
26718;SDS011;14326;50.794;6.060;2024-02-26T08:06:22;18.10;;;7.50;;
26718;SDS011;14326;50.794;6.060;2024-02-26T08:08:51;19.15;;;8.27;;
26718;SDS011;14326;50.794;6.060;2024-02-26T08:11:18;19.02;;;7.18;;
26718;SDS011;14326;50.794;6.060;2024-02-26T08:13:44;15.50;;;6.43;;
26718;SDS011;14326;50.794;6.060;2024-02-26T08:16:11;20.40;;;7.13;;
26718;SDS011;14326;50.794;6.060;2024-02-26T08:18:38;16.63;;;6.68;;
26718;SDS011;14326;50.794;6.060;2024-02-26T08:21:04;17.52;;;6.78;;
26718;SDS011;14326;50.794;6.060;2024-02-26T08:23:32;16.52;;;6.78;;
26718;SDS011;14326;50.794;6.060;2024-02-26T08:25:59;17.38;;;6.93;;
26718;SDS011;14326;50.794;6.060;2024-02-26T08:29:06;15.38;;;6.05;;
26718;SDS011;14326;50.794;6.060;2024-02-26T08:31:32;16.90;;;6.45;;
26718;SDS011;14326;50.794;6.060;2024-02-26T08:34:02;18.35;;;6.90;;
26718;SDS011;14326;50.794;6.060;2024-02-26T08:36:29;19.02;;;7.15;;
26718;SDS011;14326;50.794;6.060;2024-02-26T08:38:56;17.65;;;6.82;;
26718;SDS011;14326;50.794;6.060;2024-02-26T08:41:23;18.08;;;6.93;;
26718;SDS011;14326;50.794;6.060;2024-02-26T08:43:50;17.23;;;6.72;;
26718;SDS011;14326;50.794;6.060;2024-02-26T08:46:18;17.25;;;6.75;;
26718;SDS011;14326;50.794;6.060;2024-02-26T08:48:44;15.38;;;6.35;;
26718;SDS011;14326;50.794;6.060;2024-02-26T08:51:11;14.85;;;6.05;;
26718;SDS011;14326;50.794;6.060;2024-02-26T08:53:38;18.02;;;6.90;;
26718;SDS011;14326;50.794;6.060;2024-02-26T08:56:05;19.42;;;6.72;;
26718;SDS011;14326;50.794;6.060;2024-02-26T08:58:32;15.80;;;6.05;;
26718;SDS011;14326;50.794;6.060;2024-02-26T09:00:59;16.67;;;6.20;;
26718;SDS011;14326;50.794;6.060;2024-02-26T09:03:27;17.25;;;6.80;;
26718;SDS011;14326;50.794;6.060;2024-02-26T09:05:54;16.95;;;6.45;;
26718;SDS011;14326;50.794;6.060;2024-02-26T09:08:22;14.98;;;5.88;;
26718;SDS011;14326;50.794;6.060;2024-02-26T09:10:49;16.35;;;5.40;;
26718;SDS011;14326;50.794;6.060;2024-02-26T09:13:16;13.55;;;4.88;;
26718;SDS011;14326;50.794;6.060;2024-02-26T09:15:43;12.27;;;4.50;;
26718;SDS011;14326;50.794;6.060;2024-02-26T09:18:10;10.35;;;3.97;;
26718;SDS011;14326;50.794;6.060;2024-02-26T09:20:38;9.90;;;3.47;;
26718;SDS011;14326;50.794;6.060;2024-02-26T09:23:05;13.20;;;4.68;;
26718;SDS011;14326;50.794;6.060;2024-02-26T09:25:32;10.38;;;3.65;;
26718;SDS011;14326;50.794;6.060;2024-02-26T09:27:59;9.68;;;3.33;;
26718;SDS011;14326;50.794;6.060;2024-02-26T09:30:26;9.20;;;3.42;;
26718;SDS011;14326;50.794;6.060;2024-02-26T09:32:52;7.75;;;2.80;;
26718;SDS011;14326;50.794;6.060;2024-02-26T09:35:19;7.28;;;3.13;;
26718;SDS011;14326;50.794;6.060;2024-02-26T09:37:47;10.35;;;3.35;;
26718;SDS011;14326;50.794;6.060;2024-02-26T09:40:14;6.50;;;2.75;;
26718;SDS011;14326;50.794;6.060;2024-02-26T09:42:42;9.85;;;3.10;;
26718;SDS011;14326;50.794;6.060;2024-02-26T09:45:11;6.57;;;2.70;;
26718;SDS011;14326;50.794;6.060;2024-02-26T09:47:43;8.50;;;2.55;;
26718;SDS011;14326;50.794;6.060;2024-02-26T09:50:11;6.80;;;2.75;;
26718;SDS011;14326;50.794;6.060;2024-02-26T09:52:39;9.15;;;2.70;;
26718;SDS011;14326;50.794;6.060;2024-02-26T09:55:09;9.25;;;2.90;;
26718;SDS011;14326;50.794;6.060;2024-02-26T09:57:36;9.20;;;3.10;;
26718;SDS011;14326;50.794;6.060;2024-02-26T10:00:04;11.45;;;2.60;;
26718;SDS011;14326;50.794;6.060;2024-02-26T10:02:34;4.70;;;2.15;;
26718;SDS011;14326;50.794;6.060;2024-02-26T10:05:02;7.97;;;2.40;;
26718;SDS011;14326;50.794;6.060;2024-02-26T10:07:31;5.30;;;2.20;;
26718;SDS011;14326;50.794;6.060;2024-02-26T10:09:57;5.82;;;2.28;;
26718;SDS011;14326;50.794;6.060;2024-02-26T10:12:25;9.45;;;2.95;;
26718;SDS011;14326;50.794;6.060;2024-02-26T10:14:53;8.18;;;2.67;;
26718;SDS011;14326;50.794;6.060;2024-02-26T10:17:20;9.55;;;2.60;;
26718;SDS011;14326;50.794;6.060;2024-02-26T10:19:47;10.32;;;2.85;;
26718;SDS011;14326;50.794;6.060;2024-02-26T10:22:16;7.03;;;2.28;;
26718;SDS011;14326;50.794;6.060;2024-02-26T10:24:42;6.72;;;2.20;;
26718;SDS011;14326;50.794;6.060;2024-02-26T10:27:09;4.00;;;1.75;;
26718;SDS011;14326;50.794;6.060;2024-02-26T10:29:37;7.00;;;1.85;;
26718;SDS011;14326;50.794;6.060;2024-02-26T10:32:04;5.70;;;1.70;;
26718;SDS011;14326;50.794;6.060;2024-02-26T10:34:31;6.82;;;2.47;;
26718;SDS011;14326;50.794;6.060;2024-02-26T10:36:58;5.90;;;1.90;;
26718;SDS011;14326;50.794;6.060;2024-02-26T10:39:27;4.57;;;2.05;;
26718;SDS011;14326;50.794;6.060;2024-02-26T10:41:54;6.30;;;2.42;;
26718;SDS011;14326;50.794;6.060;2024-02-26T10:44:21;5.97;;;2.30;;
26718;SDS011;14326;50.794;6.060;2024-02-26T10:46:48;9.07;;;2.45;;
26718;SDS011;14326;50.794;6.060;2024-02-26T10:49:16;5.05;;;2.25;;
26718;SDS011;14326;50.794;6.060;2024-02-26T10:51:45;4.18;;;2.10;;
26718;SDS011;14326;50.794;6.060;2024-02-26T10:54:15;5.65;;;2.42;;
26718;SDS011;14326;50.794;6.060;2024-02-26T10:56:42;6.45;;;2.83;;
26718;SDS011;14326;50.794;6.060;2024-02-26T10:59:09;7.70;;;2.92;;
26718;SDS011;14326;50.794;6.060;2024-02-26T11:01:36;10.32;;;3.58;;
26718;SDS011;14326;50.794;6.060;2024-02-26T11:04:05;11.27;;;3.70;;
26718;SDS011;14326;50.794;6.060;2024-02-26T11:06:32;11.38;;;4.28;;
26718;SDS011;14326;50.794;6.060;2024-02-26T11:09:00;11.45;;;4.18;;
26718;SDS011;14326;50.794;6.060;2024-02-26T11:11:28;15.23;;;4.85;;
26718;SDS011;14326;50.794;6.060;2024-02-26T11:13:55;15.27;;;5.55;;
26718;SDS011;14326;50.794;6.060;2024-02-26T11:16:23;14.77;;;5.50;;
26718;SDS011;14326;50.794;6.060;2024-02-26T11:18:49;15.57;;;5.50;;
26718;SDS011;14326;50.794;6.060;2024-02-26T11:21:21;14.50;;;5.93;;
26718;SDS011;14326;50.794;6.060;2024-02-26T11:23:52;15.23;;;5.90;;
26718;SDS011;14326;50.794;6.060;2024-02-26T11:26:19;14.93;;;5.57;;
26718;SDS011;14326;50.794;6.060;2024-02-26T11:28:49;14.63;;;4.80;;
26718;SDS011;14326;50.794;6.060;2024-02-26T11:31:17;12.65;;;4.90;;
26718;SDS011;14326;50.794;6.060;2024-02-26T11:33:51;13.65;;;4.70;;
26718;SDS011;14326;50.794;6.060;2024-02-26T11:36:18;13.40;;;5.15;;
26718;SDS011;14326;50.794;6.060;2024-02-26T11:38:47;14.82;;;5.35;;
26718;SDS011;14326;50.794;6.060;2024-02-26T11:41:16;12.98;;;4.90;;
26718;SDS011;14326;50.794;6.060;2024-02-26T11:43:50;12.95;;;4.78;;
26718;SDS011;14326;50.794;6.060;2024-02-26T11:46:27;11.95;;;4.45;;
26718;SDS011;14326;50.794;6.060;2024-02-26T11:48:58;13.07;;;4.60;;
26718;SDS011;14326;50.794;6.060;2024-02-26T11:51:26;15.30;;;4.97;;
26718;SDS011;14326;50.794;6.060;2024-02-26T11:53:55;12.90;;;4.97;;
26718;SDS011;14326;50.794;6.060;2024-02-26T11:56:24;13.68;;;5.10;;
26718;SDS011;14326;50.794;6.060;2024-02-26T11:58:59;14.57;;;5.10;;
26718;SDS011;14326;50.794;6.060;2024-02-26T12:01:39;12.88;;;4.80;;
26718;SDS011;14326;50.794;6.060;2024-02-26T12:04:14;12.05;;;4.55;;
26718;SDS011;14326;50.794;6.060;2024-02-26T12:06:43;12.43;;;4.88;;
26718;SDS011;14326;50.794;6.060;2024-02-26T12:09:13;12.35;;;4.65;;
26718;SDS011;14326;50.794;6.060;2024-02-26T12:11:56;13.45;;;5.05;;
26718;SDS011;14326;50.794;6.060;2024-02-26T12:14:24;13.85;;;5.07;;
26718;SDS011;14326;50.794;6.060;2024-02-26T12:16:51;13.02;;;4.72;;
26718;SDS011;14326;50.794;6.060;2024-02-26T12:19:19;13.65;;;5.55;;
26718;SDS011;14326;50.794;6.060;2024-02-26T12:21:45;13.80;;;4.80;;
26718;SDS011;14326;50.794;6.060;2024-02-26T12:25:05;14.57;;;4.95;;
26718;SDS011;14326;50.794;6.060;2024-02-26T12:27:31;17.23;;;5.45;;
26718;SDS011;14326;50.794;6.060;2024-02-26T12:29:58;13.52;;;4.95;;
26718;SDS011;14326;50.794;6.060;2024-02-26T12:32:25;16.23;;;5.28;;
26718;SDS011;14326;50.794;6.060;2024-02-26T12:34:51;15.85;;;5.32;;
26718;SDS011;14326;50.794;6.060;2024-02-26T12:37:18;15.88;;;5.90;;
26718;SDS011;14326;50.794;6.060;2024-02-26T12:39:45;15.90;;;5.85;;
26718;SDS011;14326;50.794;6.060;2024-02-26T12:42:13;13.07;;;4.60;;
26718;SDS011;14326;50.794;6.060;2024-02-26T12:44:40;14.70;;;4.80;;
26718;SDS011;14326;50.794;6.060;2024-02-26T12:47:07;15.20;;;5.68;;
26718;SDS011;14326;50.794;6.060;2024-02-26T12:49:35;13.90;;;4.95;;
26718;SDS011;14326;50.794;6.060;2024-02-26T12:52:01;16.25;;;5.47;;
26718;SDS011;14326;50.794;6.060;2024-02-26T12:54:29;14.70;;;5.57;;
26718;SDS011;14326;50.794;6.060;2024-02-26T12:56:57;17.85;;;5.97;;
26718;SDS011;14326;50.794;6.060;2024-02-26T12:59:27;16.45;;;5.80;;
26718;SDS011;14326;50.794;6.060;2024-02-26T13:01:53;16.33;;;6.32;;
26718;SDS011;14326;50.794;6.060;2024-02-26T13:04:20;14.52;;;5.75;;
26718;SDS011;14326;50.794;6.060;2024-02-26T13:06:47;16.83;;;6.40;;
26718;SDS011;14326;50.794;6.060;2024-02-26T13:09:14;15.60;;;5.80;;
26718;SDS011;14326;50.794;6.060;2024-02-26T13:11:42;16.70;;;6.00;;
26718;SDS011;14326;50.794;6.060;2024-02-26T13:14:18;16.65;;;6.70;;
26718;SDS011;14326;50.794;6.060;2024-02-26T13:16:53;17.60;;;6.78;;
26718;SDS011;14326;50.794;6.060;2024-02-26T13:19:20;16.48;;;6.60;;
26718;SDS011;14326;50.794;6.060;2024-02-26T13:21:47;19.00;;;6.93;;
26718;SDS011;14326;50.794;6.060;2024-02-26T13:24:14;16.30;;;7.13;;
26718;SDS011;14326;50.794;6.060;2024-02-26T13:26:40;17.73;;;7.03;;
26718;SDS011;14326;50.794;6.060;2024-02-26T13:29:07;18.05;;;7.50;;
26718;SDS011;14326;50.794;6.060;2024-02-26T13:31:38;19.30;;;8.40;;
26718;SDS011;14326;50.794;6.060;2024-02-26T13:34:07;18.13;;;8.13;;
26718;SDS011;14326;50.794;6.060;2024-02-26T13:36:33;18.13;;;8.20;;
26718;SDS011;14326;50.794;6.060;2024-02-26T13:39:01;17.83;;;8.15;;
26718;SDS011;14326;50.794;6.060;2024-02-26T13:41:30;17.70;;;7.40;;
26718;SDS011;14326;50.794;6.060;2024-02-26T13:43:57;17.92;;;7.05;;
26718;SDS011;14326;50.794;6.060;2024-02-26T13:46:24;17.23;;;6.90;;
26718;SDS011;14326;50.794;6.060;2024-02-26T13:48:50;19.90;;;7.70;;
26718;SDS011;14326;50.794;6.060;2024-02-26T13:51:20;15.60;;;6.57;;
26718;SDS011;14326;50.794;6.060;2024-02-26T13:53:46;19.20;;;7.07;;
26718;SDS011;14326;50.794;6.060;2024-02-26T13:56:13;16.60;;;6.22;;
26718;SDS011;14326;50.794;6.060;2024-02-26T13:58:40;16.05;;;6.57;;
26718;SDS011;14326;50.794;6.060;2024-02-26T14:01:06;16.08;;;6.90;;
26718;SDS011;14326;50.794;6.060;2024-02-26T14:03:33;14.63;;;6.05;;
26718;SDS011;14326;50.794;6.060;2024-02-26T14:06:00;16.15;;;6.15;;
26718;SDS011;14326;50.794;6.060;2024-02-26T14:08:28;16.02;;;6.00;;
26718;SDS011;14326;50.794;6.060;2024-02-26T14:10:55;15.95;;;5.90;;
26718;SDS011;14326;50.794;6.060;2024-02-26T14:13:21;18.08;;;7.35;;
26718;SDS011;14326;50.794;6.060;2024-02-26T14:15:48;16.20;;;6.22;;
26718;SDS011;14326;50.794;6.060;2024-02-26T14:18:15;15.93;;;6.65;;
26718;SDS011;14326;50.794;6.060;2024-02-26T14:20:41;17.90;;;7.03;;
26718;SDS011;14326;50.794;6.060;2024-02-26T14:23:09;15.43;;;6.18;;
26718;SDS011;14326;50.794;6.060;2024-02-26T14:25:37;16.10;;;6.65;;
26718;SDS011;14326;50.794;6.060;2024-02-26T14:28:04;16.30;;;7.03;;
26718;SDS011;14326;50.794;6.060;2024-02-26T14:30:31;19.17;;;8.32;;
26718;SDS011;14326;50.794;6.060;2024-02-26T14:32:58;21.65;;;8.63;;
26718;SDS011;14326;50.794;6.060;2024-02-26T14:35:25;19.20;;;8.43;;
26718;SDS011;14326;50.794;6.060;2024-02-26T14:37:51;20.67;;;8.32;;
26718;SDS011;14326;50.794;6.060;2024-02-26T14:40:19;20.65;;;8.80;;
26718;SDS011;14326;50.794;6.060;2024-02-26T14:42:47;22.08;;;9.18;;
26718;SDS011;14326;50.794;6.060;2024-02-26T14:45:14;24.52;;;9.30;;
26718;SDS011;14326;50.794;6.060;2024-02-26T14:47:41;23.05;;;10.70;;